Time;durP1;ratioP1;P1;durP2;ratioP2;P2;SDS_P1;SDS_P2;PMS_P1;PMS_P2;Temp;Humidity;BMP_temperature;BMP_pressure;BME280_temperature;BME280_humidity;BME280_pressure;Samples;Min_cycle;Max_cycle;Signal;HPM_P1;HPM_P2
2021/10/27 04:02:28;;;;;;;20.05;13.52;;;12.80;99.90;;;;;;5010623;23;20271;-70
2021/10/27 04:04:55;;;;;;;24.20;15.07;;;12.80;99.90;;;;;;4933023;29;20210;-72
2021/10/27 04:07:22;;;;;;;16.87;14.50;;;12.80;99.90;;;;;;4930412;29;20473;-69
2021/10/27 04:09:48;;;;;;;15.83;12.87;;;12.80;99.90;;;;;;4933433;29;20461;-70
2021/10/27 04:12:15;;;;;;;21.40;15.37;;;12.80;99.90;;;;;;4935130;29;20481;-70
2021/10/27 04:14:42;;;;;;;18.20;14.83;;;12.80;99.90;;;;;;4923246;29;20482;-69
2021/10/27 04:17:08;;;;;;;18.57;15.27;;;12.80;99.90;;;;;;4922391;29;20466;-71
2021/10/27 04:19:36;;;;;;;16.70;14.10;;;12.80;99.90;;;;;;4919732;29;20880;-69
2021/10/27 04:22:03;;;;;;;15.80;13.93;;;12.80;99.90;;;;;;4914206;29;20498;-70
2021/10/27 04:24:30;;;;;;;18.27;14.60;;;12.80;99.90;;;;;;4921827;29;20529;-71
2021/10/27 04:26:57;;;;;;;18.33;14.27;;;12.90;99.90;;;;;;4933698;29;20462;-70
2021/10/27 04:29:23;;;;;;;16.87;13.23;;;12.80;99.90;;;;;;4924198;29;20473;-70
2021/10/27 04:31:50;;;;;;;18.13;14.53;;;12.80;99.90;;;;;;4925827;29;20486;-70
2021/10/27 04:34:17;;;;;;;16.37;14.50;;;12.90;99.90;;;;;;4899382;29;21028;-70
2021/10/27 04:36:45;;;;;;;16.67;14.40;;;12.90;99.90;;;;;;4906400;29;20462;-70
2021/10/27 04:39:11;;;;;;;15.03;13.50;;;12.90;99.90;;;;;;4918534;29;20466;-69
2021/10/27 04:41:38;;;;;;;15.77;14.00;;;12.90;99.90;;;;;;4918100;29;20493;-71
2021/10/27 04:44:05;;;;;;;15.57;13.75;;;12.90;99.90;;;;;;4901700;29;20982;-71
2021/10/27 04:46:32;;;;;;;16.23;14.23;;;12.90;99.90;;;;;;4910524;29;20883;-69
2021/10/27 04:48:58;;;;;;;19.13;14.23;;;12.90;99.90;;;;;;4915349;29;20473;-71
2021/10/27 04:51:25;;;;;;;25.70;15.90;;;12.90;99.90;;;;;;4924886;29;20241;-71
2021/10/27 04:53:53;;;;;;;16.70;13.37;;;12.90;99.90;;;;;;4901339;29;20527;-70
2021/10/27 04:56:20;;;;;;;20.27;14.33;;;12.90;99.90;;;;;;4896834;29;20474;-71
2021/10/27 04:58:47;;;;;;;18.37;14.77;;;12.90;99.90;;;;;;4912615;29;20470;-71
2021/10/27 05:01:13;;;;;;;15.80;13.70;;;12.90;99.90;;;;;;4903188;29;20499;-70
2021/10/27 05:03:40;;;;;;;19.80;15.27;;;12.90;99.90;;;;;;4914206;29;20840;-71
2021/10/27 05:06:08;;;;;;;19.60;13.80;;;12.90;99.90;;;;;;4904709;29;20960;-72
2021/10/27 05:08:35;;;;;;;15.97;13.87;;;12.90;99.90;;;;;;4930622;29;20486;-71
2021/10/27 05:11:03;;;;;;;16.60;14.80;;;12.90;99.90;;;;;;4923799;29;20569;-72
2021/10/27 05:13:30;;;;;;;15.70;13.43;;;12.90;99.90;;;;;;4929744;29;20461;-72
2021/10/27 05:15:57;;;;;;;21.07;14.10;;;12.90;99.90;;;;;;4911148;29;20536;-71
2021/10/27 05:18:23;;;;;;;17.37;13.87;;;12.90;99.90;;;;;;4901735;29;20474;-71
2021/10/27 05:20:50;;;;;;;20.42;14.82;;;12.90;99.90;;;;;;4920419;29;20573;-71
2021/10/27 05:23:17;;;;;;;19.17;15.10;;;12.90;99.90;;;;;;4913825;29;20747;-70
2021/10/27 05:25:43;;;;;;;18.90;15.40;;;12.90;99.90;;;;;;4922801;29;20473;-72
2021/10/27 05:28:12;;;;;;;18.27;13.77;;;12.90;99.90;;;;;;4916849;29;20216;-70
2021/10/27 05:30:38;;;;;;;16.37;14.03;;;12.90;99.90;;;;;;4924065;29;20584;-72
2021/10/27 05:33:05;;;;;;;16.67;13.20;;;12.90;99.90;;;;;;4917078;29;20469;-71
2021/10/27 05:35:32;;;;;;;15.93;14.43;;;12.90;99.90;;;;;;4922272;29;20476;-71
2021/10/27 05:38:01;;;;;;;17.70;14.50;;;12.90;99.90;;;;;;4917302;29;20901;-70
2021/10/27 05:40:29;;;;;;;15.03;12.93;;;12.90;99.90;;;;;;4907170;29;20462;-71
2021/10/27 05:42:56;;;;;;;16.37;12.67;;;12.90;99.90;;;;;;4919734;29;21028;-71
2021/10/27 05:45:26;;;;;;;15.03;13.43;;;13.00;99.90;;;;;;4912034;29;20475;-71
2021/10/27 05:47:56;;;;;;;15.60;13.50;;;13.00;99.90;;;;;;4915864;29;21344;-71
2021/10/27 05:50:28;;;;;;;17.50;14.27;;;13.00;99.90;;;;;;4898074;29;20471;-71
2021/10/27 05:55:39;;;;;;;14.90;13.07;;;13.00;99.90;;;;;;4917085;29;20449;-72
2021/10/27 05:58:08;;;;;;;15.77;12.87;;;13.00;99.90;;;;;;4919280;29;20473;-71
2021/10/27 06:00:36;;;;;;;13.93;12.60;;;13.10;99.90;;;;;;4917926;29;21100;-72
2021/10/27 06:03:03;;;;;;;16.73;12.67;;;13.10;99.90;;;;;;4916050;29;20505;-72
2021/10/27 06:05:31;;;;;;;17.50;12.13;;;13.10;99.90;;;;;;4905574;29;20461;-71
2021/10/27 06:07:58;;;;;;;15.70;14.10;;;13.10;99.90;;;;;;4921678;29;21240;-71
2021/10/27 06:10:25;;;;;;;18.77;13.63;;;13.10;99.90;;;;;;4919226;29;20538;-72
2021/10/27 06:12:56;;;;;;;16.47;14.40;;;13.10;99.90;;;;;;4922193;29;20229;-71
2021/10/27 06:15:23;;;;;;;16.07;13.13;;;13.10;99.90;;;;;;4923435;29;20497;-72
2021/10/27 06:17:52;;;;;;;17.50;14.13;;;13.10;99.90;;;;;;4922125;29;20486;-72
2021/10/27 06:20:19;;;;;;;15.10;13.50;;;13.10;99.90;;;;;;4916692;29;20466;-72
2021/10/27 06:22:47;;;;;;;15.83;14.20;;;13.10;99.90;;;;;;4905619;29;20807;-73
2021/10/27 06:25:14;;;;;;;20.53;14.27;;;13.10;99.90;;;;;;4915617;29;20474;-72
2021/10/27 06:27:44;;;;;;;17.00;14.10;;;13.10;99.90;;;;;;4924978;29;20474;-72
2021/10/27 06:30:14;;;;;;;19.97;14.70;;;13.10;99.90;;;;;;4917126;29;21006;-71
2021/10/27 06:32:46;;;;;;;23.00;14.80;;;13.10;99.90;;;;;;4900157;29;20492;-70
2021/10/27 06:35:16;;;;;;;20.70;15.60;;;13.10;99.90;;;;;;4898171;29;20479;-71
2021/10/27 06:48:41;;;;;;;18.40;15.87;;;13.10;99.90;;;;;;4892663;29;20207;-71
2021/10/27 06:51:09;;;;;;;21.40;16.13;;;13.10;99.90;;;;;;4897147;29;20479;-71
2021/10/27 06:53:36;;;;;;;20.00;16.00;;;13.10;99.90;;;;;;4901488;29;20462;-72
2021/10/27 06:56:08;;;;;;;18.50;16.07;;;13.10;99.90;;;;;;4927472;29;20469;-70
2021/10/27 06:58:42;;;;;;;26.10;16.90;;;13.10;99.90;;;;;;4910420;29;20558;-71
2021/10/27 07:01:13;;;;;;;23.13;16.67;;;13.10;99.90;;;;;;4916686;29;20498;-71
2021/10/27 07:03:58;;;;;;;22.87;15.87;;;13.10;99.90;;;;;;4908121;29;20578;-71
2021/10/27 07:17:22;;;;;;;27.27;16.53;;;13.10;99.90;;;;;;4937322;29;20453;-71
2021/10/27 07:19:49;;;;;;;21.40;16.53;;;13.10;99.90;;;;;;4922294;29;20474;-71
2021/10/27 07:22:17;;;;;;;21.20;16.30;;;13.10;99.90;;;;;;4923204;29;20493;-71
2021/10/27 07:24:44;;;;;;;21.87;16.43;;;13.10;99.90;;;;;;4921052;29;20466;-71
2021/10/27 07:27:12;;;;;;;24.70;16.37;;;13.10;99.90;;;;;;4917758;29;20471;-71
2021/10/27 07:29:42;;;;;;;21.50;16.47;;;13.10;99.90;;;;;;4918098;29;20554;-72
2021/10/27 07:32:10;;;;;;;20.90;16.50;;;13.20;99.90;;;;;;4924792;29;20477;-71
2021/10/27 07:34:39;;;;;;;20.07;15.60;;;13.20;99.90;;;;;;4925383;29;20858;-71
2021/10/27 07:39:55;;;;;;;19.80;16.03;;;13.20;99.90;;;;;;4914113;29;20452;-71
2021/10/27 07:42:23;;;;;;;21.77;17.60;;;13.20;99.90;;;;;;4926309;29;20532;-71
2021/10/27 07:44:49;;;;;;;21.40;16.70;;;13.30;99.90;;;;;;4904108;29;20471;-71
2021/10/27 07:47:17;;;;;;;23.27;18.87;;;13.30;99.90;;;;;;4917514;29;20467;-71
2021/10/27 07:49:43;;;;;;;27.13;16.23;;;13.30;99.90;;;;;;4913414;29;20471;-73
2021/10/27 07:52:10;;;;;;;21.53;16.07;;;13.40;99.90;;;;;;4920396;29;20483;-72
2021/10/27 07:54:37;;;;;;;26.00;17.97;;;13.40;99.90;;;;;;4915874;29;20601;-72
2021/10/27 07:57:06;;;;;;;19.40;16.07;;;13.50;99.90;;;;;;4925489;29;20466;-71
2021/10/27 07:59:32;;;;;;;22.83;17.00;;;13.50;99.90;;;;;;4913212;29;20964;-72
2021/10/27 08:02:02;;;;;;;16.90;14.27;;;13.50;99.90;;;;;;4914143;29;20918;-71
2021/10/27 08:04:28;;;;;;;22.03;15.90;;;13.50;99.90;;;;;;4918949;29;21104;-71
2021/10/27 08:06:55;;;;;;;22.93;16.13;;;13.60;99.90;;;;;;4933178;29;20994;-71
2021/10/27 08:09:22;;;;;;;20.60;15.73;;;13.60;99.90;;;;;;4933517;29;20465;-71
2021/10/27 08:11:49;;;;;;;21.90;15.13;;;13.60;99.90;;;;;;4933268;29;20555;-71
2021/10/27 08:14:17;;;;;;;22.13;15.80;;;13.60;99.90;;;;;;4918400;29;21000;-71
2021/10/27 08:16:45;;;;;;;17.47;14.93;;;13.60;99.90;;;;;;4913838;29;20557;-71
2021/10/27 08:19:11;;;;;;;21.37;15.87;;;13.60;99.90;;;;;;4914263;29;20497;-71
2021/10/27 08:21:38;;;;;;;23.30;15.63;;;13.60;99.90;;;;;;4914661;29;20489;-71
2021/10/27 08:24:07;;;;;;;16.80;14.27;;;13.60;99.90;;;;;;4914610;29;20494;-73
2021/10/27 08:26:34;;;;;;;16.00;14.30;;;13.70;99.90;;;;;;4914354;29;20641;-73
2021/10/27 08:29:11;;;;;;;18.03;13.90;;;13.70;99.90;;;;;;4913655;29;20840;-72
2021/10/27 08:31:40;;;;;;;17.70;14.77;;;13.70;99.90;;;;;;4913883;29;20490;-72
2021/10/27 08:34:15;;;;;;;18.23;14.60;;;13.70;99.90;;;;;;4914182;29;20475;-72
2021/10/27 08:36:42;;;;;;;23.80;14.87;;;13.70;99.90;;;;;;4915405;29;20477;-73
2021/10/27 08:39:09;;;;;;;15.10;13.00;;;13.70;99.90;;;;;;4914082;29;20466;-72
2021/10/27 08:41:38;;;;;;;17.30;13.40;;;13.70;99.90;;;;;;4924463;29;20493;-72
2021/10/27 08:44:05;;;;;;;18.00;13.60;;;13.70;99.90;;;;;;4932817;29;20990;-72
2021/10/27 08:46:34;;;;;;;18.33;14.67;;;13.80;99.90;;;;;;4932726;29;20477;-72
2021/10/27 08:49:04;;;;;;;16.80;13.70;;;13.80;99.90;;;;;;4932577;29;20959;-72
2021/10/27 08:51:32;;;;;;;16.53;12.63;;;13.80;99.90;;;;;;4925322;29;20531;-73
2021/10/27 08:53:59;;;;;;;15.70;12.93;;;13.80;99.90;;;;;;4914604;29;20467;-73
2021/10/27 08:56:27;;;;;;;15.50;12.40;;;13.80;99.90;;;;;;4914229;29;20486;-70
2021/10/27 08:58:58;;;;;;;17.20;12.80;;;13.80;99.90;;;;;;4913625;29;20948;-71
2021/10/27 09:01:34;;;;;;;17.13;13.63;;;13.80;99.90;;;;;;4917444;29;20874;-71
2021/10/27 09:04:22;;;;;;;14.07;11.57;;;13.90;99.90;;;;;;4915019;29;20855;-71
2021/10/27 09:07:09;;;;;;;12.93;11.60;;;13.90;99.90;;;;;;4917604;29;20832;-71
2021/10/27 09:35:46;;;;;;;7.60;5.93;;;14.00;99.90;;;;;;4916084;29;20456;-70
2021/10/27 09:41:33;;;;;;;12.23;11.00;;;14.10;99.90;;;;;;4927162;29;21236;-71
2021/10/27 09:44:38;;;;;;;11.60;10.07;;;14.10;99.90;;;;;;4936074;29;20548;-71
2021/10/27 09:47:31;;;;;;;9.63;8.83;;;14.10;99.90;;;;;;4938798;29;20472;-71
2021/10/27 09:56:10;;;;;;;9.90;9.00;;;14.20;99.90;;;;;;4889589;29;20451;-71
2021/10/27 10:04:23;;;;;;;10.60;9.27;;;14.20;99.90;;;;;;4929103;29;20847;-71
2021/10/27 10:06:52;;;;;;;10.60;9.63;;;14.20;99.90;;;;;;4907032;29;20462;-71
2021/10/27 10:09:19;;;;;;;10.77;9.77;;;14.20;99.90;;;;;;4932131;29;20468;-71
2021/10/27 10:11:49;;;;;;;9.90;9.03;;;14.30;99.90;;;;;;4923181;29;20838;-71
2021/10/27 10:14:17;;;;;;;10.70;9.57;;;14.20;99.90;;;;;;4916266;29;21032;-72
2021/10/27 10:16:47;;;;;;;11.13;9.43;;;14.30;99.90;;;;;;4916134;29;20473;-71
2021/10/27 10:19:16;;;;;;;10.00;9.00;;;14.30;99.90;;;;;;4916387;29;20470;-70
2021/10/27 10:21:44;;;;;;;10.77;8.73;;;14.30;99.90;;;;;;4916458;29;20494;-71
2021/10/27 10:24:32;;;;;;;10.93;10.03;;;14.30;99.90;;;;;;4916052;29;20483;-70
2021/10/27 10:27:05;;;;;;;8.20;7.40;;;14.40;99.90;;;;;;4913012;29;20974;-70
2021/10/27 10:29:53;;;;;;;14.10;8.90;;;14.40;99.90;;;;;;4917411;29;20471;-70
2021/10/27 10:32:38;;;;;;;11.40;10.30;;;14.40;99.90;;;;;;4915886;29;20502;-71
2021/10/27 10:35:14;;;;;;;9.30;8.40;;;14.40;99.90;;;;;;4897421;29;20876;-71
2021/10/27 10:37:47;;;;;;;10.97;9.87;;;14.40;99.90;;;;;;4900369;29;20469;-71
2021/10/27 10:40:50;;;;;;;13.00;10.77;;;14.40;99.90;;;;;;4935032;29;20572;-72
2021/10/27 11:24:35;;;;;;;10.20;9.30;;;14.90;99.90;;;;;;4907818;29;20490;-71
2021/10/27 11:38:21;;;;;;;10.63;9.50;;;14.80;99.90;;;;;;4907135;29;20526;-72
2021/10/27 11:40:50;;;;;;;11.10;10.20;;;14.80;99.90;;;;;;4912435;29;20526;-72
2021/10/27 11:43:25;;;;;;;10.20;9.40;;;14.80;99.90;;;;;;4914038;29;20494;-72
2021/10/27 11:45:58;;;;;;;10.93;9.83;;;14.80;99.90;;;;;;4914987;29;20469;-71
2021/10/27 11:48:34;;;;;;;11.00;10.20;;;14.80;99.90;;;;;;4914051;29;20471;-71
2021/10/27 11:51:08;;;;;;;10.77;9.87;;;14.80;99.90;;;;;;4926582;29;21025;-71
2021/10/27 11:53:35;;;;;;;10.10;9.30;;;14.80;99.90;;;;;;4915198;29;20880;-71
2021/10/27 11:56:12;;;;;;;10.77;9.77;;;14.80;99.90;;;;;;4914148;29;20471;-71
2021/10/27 11:58:41;;;;;;;10.67;9.87;;;14.80;99.90;;;;;;4911470;29;20544;-70
2021/10/27 12:01:08;;;;;;;9.97;9.20;;;14.80;99.90;;;;;;4922103;29;21086;-70
2021/10/27 12:03:38;;;;;;;11.07;10.00;;;14.80;99.90;;;;;;4913561;29;20500;-70
2021/10/27 12:06:09;;;;;;;9.73;8.93;;;14.80;99.90;;;;;;4914640;29;20561;-71
2021/10/27 12:09:08;;;;;;;11.27;10.47;;;14.80;99.90;;;;;;4913741;29;20601;-71
2021/10/27 12:11:50;;;;;;;10.83;8.90;;;14.90;99.90;;;;;;4905368;29;20500;-73
2021/10/27 12:14:23;;;;;;;10.37;9.43;;;14.90;99.90;;;;;;4915392;29;20549;-72
2021/10/27 12:17:11;;;;;;;10.23;9.43;;;14.90;99.90;;;;;;4898692;29;20490;-71
2021/10/27 12:19:41;;;;;;;11.63;10.43;;;14.90;99.90;;;;;;4913613;29;20466;-71
2021/10/27 12:22:09;;;;;;;9.37;8.47;;;14.90;99.90;;;;;;4914081;29;20486;-71
2021/10/27 12:24:38;;;;;;;10.13;9.30;;;14.90;99.90;;;;;;4912014;29;20501;-71
2021/10/27 12:27:20;;;;;;;9.70;8.80;;;14.90;99.90;;;;;;4916699;29;20478;-72
2021/10/27 12:29:52;;;;;;;9.17;8.33;;;14.90;99.90;;;;;;4922631;29;20461;-72
2021/10/27 12:32:19;;;;;;;8.60;8.00;;;15.00;99.90;;;;;;4913889;29;20486;-71
2021/10/27 12:34:50;;;;;;;8.53;7.87;;;15.00;99.90;;;;;;4913505;29;20466;-71
2021/10/27 12:37:31;;;;;;;8.20;7.70;;;15.00;99.90;;;;;;4926795;29;20462;-71
2021/10/27 12:40:14;;;;;;;10.23;7.90;;;15.00;99.90;;;;;;4917789;29;20466;-70
2021/10/27 12:42:42;;;;;;;7.37;6.80;;;15.00;99.90;;;;;;4917148;29;21016;-71
2021/10/27 12:45:08;;;;;;;8.43;7.73;;;15.10;99.90;;;;;;4915557;29;20490;-70
2021/10/27 12:47:39;;;;;;;8.53;7.83;;;15.10;99.90;;;;;;4922231;29;20470;-72
2021/10/27 12:50:11;;;;;;;8.17;7.63;;;15.10;99.90;;;;;;4920949;29;20550;-72
2021/10/27 12:52:42;;;;;;;7.13;6.43;;;15.10;99.90;;;;;;4921201;29;20501;-73
2021/10/27 12:55:21;;;;;;;8.10;7.37;;;15.20;99.90;;;;;;4917771;29;20514;-73
2021/10/27 12:58:06;;;;;;;7.80;6.93;;;15.20;99.90;;;;;;4917282;29;20466;-74
2021/10/27 13:00:53;;;;;;;7.00;6.40;;;15.20;99.90;;;;;;4916881;29;20545;-72
2021/10/27 13:17:39;;;;;;;6.40;5.97;;;15.40;99.90;;;;;;4899594;29;20475;-70
2021/10/27 13:31:27;;;;;;;6.47;5.50;;;15.20;99.90;;;;;;4903597;29;20586;-71
2021/10/27 13:33:54;;;;;;;6.97;6.37;;;15.20;99.90;;;;;;4916737;29;20458;-71
2021/10/27 13:36:21;;;;;;;7.53;7.00;;;15.20;99.90;;;;;;4917864;29;20839;-72
2021/10/27 13:38:50;;;;;;;8.03;7.47;;;15.20;99.90;;;;;;4927344;29;20997;-69
2021/10/27 13:41:19;;;;;;;8.27;7.37;;;15.30;99.90;;;;;;4915868;29;20493;-71
2021/10/27 13:43:50;;;;;;;7.60;6.97;;;15.30;99.90;;;;;;4914467;29;20882;-71
2021/10/27 13:49:21;;;;;;;6.30;5.90;;;15.30;99.90;;;;;;4921273;29;20518;-70
2021/10/27 14:08:19;;;;;;;5.97;5.50;;;15.10;99.90;;;;;;4923283;29;20492;-71
2021/10/27 14:10:56;;;;;;;6.50;5.77;;;15.10;99.90;;;;;;4928133;29;20481;-73
2021/10/27 14:13:31;;;;;;;5.83;5.53;;;15.00;99.90;;;;;;4924238;29;21273;-71
2021/10/27 14:16:20;;;;;;;5.87;5.37;;;15.00;99.90;;;;;;4921609;29;20794;-73
2021/10/27 14:18:59;;;;;;;5.77;5.37;;;15.00;99.90;;;;;;4923093;29;20476;-71
2021/10/27 15:21:53;;;;;;;3.83;3.67;;;14.80;99.90;;;;;;4912144;29;20481;-71
2021/10/27 15:24:38;;;;;;;6.70;4.30;;;14.80;99.90;;;;;;4920755;29;20525;-70
2021/10/27 15:32:47;;;;;;;4.90;4.20;;;14.80;99.90;;;;;;4903940;29;20488;-71
2021/10/27 15:35:30;;;;;;;5.27;4.77;;;14.70;99.90;;;;;;4922700;29;20472;-73
2021/10/27 15:43:46;;;;;;;4.50;4.20;;;14.70;99.90;;;;;;4897471;29;20465;-70
2021/10/27 15:51:35;;;;;;;5.10;4.60;;;14.70;99.90;;;;;;4916729;29;20503;-71
2021/10/27 15:54:03;;;;;;;4.80;4.37;;;14.70;99.90;;;;;;4915777;29;20474;-71
2021/10/27 15:56:30;;;;;;;4.83;4.27;;;14.70;99.90;;;;;;4915520;29;20844;-70
2021/10/27 15:58:57;;;;;;;5.53;4.87;;;14.70;99.90;;;;;;4916864;29;20751;-70
2021/10/27 16:01:24;;;;;;;4.17;3.80;;;14.70;99.90;;;;;;4914153;29;20490;-70
2021/10/27 16:03:52;;;;;;;3.87;3.67;;;14.70;99.90;;;;;;4918876;29;20470;-71
2021/10/27 16:06:23;;;;;;;3.70;3.40;;;14.70;99.90;;;;;;4923493;29;20510;-71
2021/10/27 16:08:54;;;;;;;4.07;3.87;;;14.70;99.90;;;;;;4913657;29;20920;-73
2021/10/27 16:11:22;;;;;;;3.70;3.60;;;14.70;99.90;;;;;;4901754;29;20867;-71
2021/10/27 16:13:49;;;;;;;5.77;5.27;;;14.60;99.90;;;;;;4920696;29;20849;-71
2021/10/27 16:16:16;;;;;;;6.57;5.07;;;14.60;99.90;;;;;;4914809;29;20470;-70
2021/10/27 16:18:44;;;;;;;7.33;6.63;;;14.60;99.90;;;;;;4913778;29;20481;-71
2021/10/27 16:21:12;;;;;;;4.90;4.47;;;14.60;99.90;;;;;;4919890;29;20691;-72
2021/10/27 16:23:39;;;;;;;6.50;5.07;;;14.60;99.90;;;;;;4927990;29;20481;-71
2021/10/27 16:26:06;;;;;;;5.10;4.70;;;14.60;99.90;;;;;;4920598;29;20481;-71
2021/10/27 16:28:33;;;;;;;4.93;4.50;;;14.50;99.90;;;;;;4913008;29;20466;-72
2021/10/27 16:31:00;;;;;;;5.80;4.30;;;14.50;99.90;;;;;;4914333;29;20514;-72
2021/10/27 16:33:26;;;;;;;4.07;3.80;;;14.50;99.90;;;;;;4921304;29;20477;-72
2021/10/27 16:35:55;;;;;;;4.20;3.77;;;14.50;99.90;;;;;;4927595;29;20465;-73
2021/10/27 16:38:23;;;;;;;5.00;3.83;;;14.50;99.90;;;;;;4913540;29;20500;-71
2021/10/27 16:40:50;;;;;;;5.00;4.57;;;14.50;99.90;;;;;;4918629;29;20485;-70
2021/10/27 16:43:18;;;;;;;5.17;4.67;;;14.50;99.90;;;;;;4920050;29;20469;-72
2021/10/27 16:45:44;;;;;;;4.60;4.20;;;14.50;99.90;;;;;;4920393;29;21033;-71
2021/10/27 16:48:11;;;;;;;7.07;5.17;;;14.50;99.90;;;;;;4921498;29;20492;-73
2021/10/27 16:50:38;;;;;;;4.80;4.50;;;14.50;99.90;;;;;;4934415;29;20533;-71
2021/10/27 16:53:05;;;;;;;5.10;4.70;;;14.50;99.90;;;;;;4916802;29;20966;-72
2021/10/27 16:55:33;;;;;;;4.57;4.37;;;14.50;99.90;;;;;;4913063;29;20474;-71
2021/10/27 16:58:01;;;;;;;5.50;5.10;;;14.50;99.90;;;;;;4922264;29;20477;-71
2021/10/27 17:00:30;;;;;;;4.47;4.07;;;14.50;99.90;;;;;;4932948;29;20470;-71
2021/10/27 17:02:57;;;;;;;4.20;4.00;;;14.50;99.90;;;;;;4918833;29;20470;-71
2021/10/27 17:05:24;;;;;;;4.47;4.27;;;14.50;99.90;;;;;;4914046;29;20505;-72
2021/10/27 17:07:51;;;;;;;7.00;5.17;;;14.50;99.90;;;;;;4917888;29;20461;-71
2021/10/27 17:10:18;;;;;;;4.60;4.20;;;14.50;99.90;;;;;;4929688;29;20545;-72
2021/10/27 17:12:46;;;;;;;6.80;5.30;;;14.50;99.90;;;;;;4917689;29;20552;-71
2021/10/27 17:15:14;;;;;;;5.60;4.80;;;14.50;99.90;;;;;;4924746;29;20828;-71
2021/10/27 17:17:42;;;;;;;5.80;5.40;;;14.40;99.90;;;;;;4918810;29;20520;-71
2021/10/27 17:20:10;;;;;;;7.93;5.23;;;14.40;99.90;;;;;;4913686;29;20475;-71
2021/10/27 17:22:39;;;;;;;6.57;5.20;;;14.40;99.90;;;;;;4916894;29;20486;-71
2021/10/27 17:25:07;;;;;;;4.87;4.67;;;14.40;99.90;;;;;;4936155;29;20489;-71
2021/10/27 17:27:37;;;;;;;5.20;4.90;;;14.40;99.90;;;;;;4920931;29;20525;-74
2021/10/27 17:30:08;;;;;;;4.77;4.37;;;14.40;99.90;;;;;;4916876;29;20466;-71
2021/10/27 17:32:34;;;;;;;6.90;6.43;;;14.40;99.90;;;;;;4916384;29;20490;-71
2021/10/27 17:35:01;;;;;;;5.83;5.57;;;14.40;99.90;;;;;;4917166;29;20466;-71
2021/10/27 17:37:28;;;;;;;6.07;5.57;;;14.40;99.90;;;;;;4916780;29;20474;-71
2021/10/27 17:39:54;;;;;;;5.73;5.33;;;14.40;99.90;;;;;;4916197;29;20474;-73
2021/10/27 17:42:21;;;;;;;5.83;5.33;;;14.40;99.90;;;;;;4916190;29;21011;-72
2021/10/27 17:44:49;;;;;;;6.07;5.57;;;14.40;99.90;;;;;;4925522;29;20517;-71
2021/10/27 17:47:23;;;;;;;5.30;5.10;;;14.40;99.90;;;;;;4933701;29;20480;-71
2021/10/27 17:50:03;;;;;;;5.73;5.23;;;14.40;99.90;;;;;;4922260;29;20469;-71
2021/10/27 17:52:42;;;;;;;5.83;5.60;;;14.40;99.90;;;;;;4914946;29;20491;-72
2021/10/27 17:58:27;;;;;;;6.90;6.40;;;14.40;99.90;;;;;;4915879;29;20461;-72
2021/10/27 18:00:50;;;;;;;5.73;5.33;;;14.40;99.90;;;;;;4918663;29;20494;-71
2021/10/27 18:03:19;;;;;;;6.20;5.80;;;14.40;99.90;;;;;;4926726;29;20466;-72
2021/10/27 18:05:46;;;;;;;6.57;6.17;;;14.40;99.90;;;;;;4924613;29;20518;-73
2021/10/27 18:08:16;;;;;;;7.73;7.07;;;14.40;99.90;;;;;;4915828;29;20462;-72
2021/10/27 18:10:44;;;;;;;7.40;6.80;;;14.40;99.90;;;;;;4914492;29;20879;-71
2021/10/27 18:13:16;;;;;;;7.97;7.27;;;14.40;99.90;;;;;;4918531;29;20473;-71
2021/10/27 18:15:45;;;;;;;7.33;6.80;;;14.40;99.90;;;;;;4915241;29;20467;-71
2021/10/27 18:18:16;;;;;;;7.90;7.20;;;14.40;99.90;;;;;;4915084;29;20628;-72
2021/10/27 18:20:46;;;;;;;7.70;7.20;;;14.40;99.90;;;;;;4919717;29;20493;-70
2021/10/27 18:23:27;;;;;;;8.63;7.60;;;14.40;99.90;;;;;;4912860;29;20518;-70
2021/10/27 18:26:18;;;;;;;8.87;7.90;;;14.40;99.90;;;;;;4902394;29;20602;-71
2021/10/27 18:37:12;;;;;;;8.27;7.53;;;14.40;99.90;;;;;;4934334;29;20492;-71
2021/10/27 18:39:56;;;;;;;7.30;6.67;;;14.30;99.90;;;;;;4898306;29;20825;-70
2021/10/27 18:42:28;;;;;;;9.83;8.83;;;14.40;99.90;;;;;;4909995;29;20490;-71
2021/10/27 18:44:55;;;;;;;9.53;8.40;;;14.30;99.90;;;;;;4914411;29;20515;-71
2021/10/27 18:47:25;;;;;;;7.93;7.33;;;14.40;99.90;;;;;;4914332;29;20467;-70
2021/10/27 18:49:51;;;;;;;7.37;6.87;;;14.40;99.90;;;;;;4909342;29;20807;-71
2021/10/27 18:52:26;;;;;;;7.27;6.77;;;14.40;99.90;;;;;;4915898;29;20920;-71
2021/10/27 18:54:55;;;;;;;7.03;6.70;;;14.40;99.90;;;;;;4901443;29;20473;-71
2021/10/27 18:57:30;;;;;;;8.13;7.53;;;14.40;99.90;;;;;;4925222;29;20498;-71
2021/10/27 19:00:07;;;;;;;7.63;6.97;;;14.40;99.90;;;;;;4909984;29;20467;-71
2021/10/27 19:02:41;;;;;;;8.83;7.93;;;14.40;99.90;;;;;;4926126;29;20497;-72
2021/10/27 19:10:52;;;;;;;8.50;7.70;;;14.40;99.90;;;;;;4901889;29;20474;-71
2021/10/27 19:13:33;;;;;;;7.30;6.90;;;14.30;99.90;;;;;;4925802;29;20490;-72
2021/10/27 19:16:01;;;;;;;7.40;6.80;;;14.30;99.90;;;;;;4917703;29;20485;-72
2021/10/27 19:18:27;;;;;;;8.50;7.70;;;14.30;99.90;;;;;;4914188;29;20842;-73
2021/10/27 19:20:55;;;;;;;8.17;7.57;;;14.30;99.90;;;;;;4913818;29;20486;-72
2021/10/27 19:23:24;;;;;;;7.57;7.10;;;14.30;99.90;;;;;;4920867;29;20500;-72
2021/10/27 19:26:00;;;;;;;9.30;8.00;;;14.40;99.90;;;;;;4902113;29;20586;-72
2021/10/27 19:28:37;;;;;;;8.30;7.70;;;14.40;99.90;;;;;;4896304;29;20539;-72
2021/10/27 19:34:19;;;;;;;13.73;7.40;;;14.40;99.90;;;;;;4903862;29;20462;-71
2021/10/27 20:12:48;;;;;;;8.97;8.10;;;14.40;99.90;;;;;;4909738;29;21129;-73
2021/10/27 20:48:45;;;;;;;8.67;7.83;;;14.40;99.90;;;;;;4901626;29;20486;-72
2021/10/27 20:51:16;;;;;;;8.40;7.57;;;14.40;99.90;;;;;;4900933;29;20487;-70
2021/10/27 20:53:48;;;;;;;8.00;7.30;;;14.30;99.90;;;;;;4908818;29;21010;-70
2021/10/27 20:56:18;;;;;;;9.13;8.50;;;14.30;99.90;;;;;;4911469;29;20461;-72
2021/10/27 20:58:59;;;;;;;8.00;7.40;;;14.20;99.90;;;;;;4927304;29;20890;-72
